createdAt,value
2023-02-07T00:02:56.730Z,10.35
2023-02-07T00:07:53.630Z,9.80
2023-02-07T00:12:50.459Z,10.77
2023-02-07T00:17:47.350Z,11.02
2023-02-07T00:22:45.380Z,10.93
2023-02-07T00:27:42.249Z,10.70
2023-02-07T00:32:39.064Z,11.95
2023-02-07T00:37:36.061Z,11.77
2023-02-07T00:42:34.429Z,10.38
2023-02-07T00:47:31.356Z,11.13
2023-02-07T00:52:28.189Z,11.60
2023-02-07T00:57:25.042Z,12.18
2023-02-07T01:02:22.725Z,11.07
2023-02-07T01:07:19.852Z,12.10
2023-02-07T01:12:16.791Z,11.60
2023-02-07T01:17:13.697Z,11.07
2023-02-07T01:22:11.297Z,13.32
2023-02-07T01:27:08.076Z,12.68
2023-02-07T01:32:05.038Z,13.50
2023-02-07T01:37:02.013Z,11.93
2023-02-07T01:42:00.105Z,12.70
2023-02-07T01:46:57.356Z,13.95
2023-02-07T01:51:57.970Z,14.23
2023-02-07T01:56:59.360Z,13.82
2023-02-07T02:02:00.006Z,13.60
2023-02-07T02:06:57.685Z,12.57
2023-02-07T02:12:18.186Z,12.25
2023-02-07T02:17:25.522Z,12.85
2023-02-07T02:22:51.986Z,13.80
2023-02-07T02:28:17.261Z,13.35
2023-02-07T02:33:46.569Z,13.75
2023-02-07T02:38:50.478Z,13.57
2023-02-07T02:43:53.065Z,13.95
2023-02-07T02:48:53.429Z,14.82
2023-02-07T02:53:52.484Z,14.55
2023-02-07T02:59:14.857Z,12.63
2023-02-07T03:04:32.688Z,13.02
2023-02-07T03:09:43.076Z,13.48
2023-02-07T03:14:48.654Z,14.77
2023-02-07T03:19:53.737Z,14.05
2023-02-07T03:24:53.631Z,14.57
2023-02-07T03:29:57.011Z,15.07
2023-02-07T03:34:58.421Z,16.23
2023-02-07T03:39:56.165Z,14.13
2023-02-07T03:44:55.794Z,14.73
2023-02-07T03:49:52.726Z,14.68
2023-02-07T03:54:50.477Z,14.30
2023-02-07T03:59:47.367Z,14.75
2023-02-07T04:04:44.514Z,14.75
2023-02-07T04:09:41.701Z,13.75
2023-02-07T04:14:39.307Z,13.55
2023-02-07T04:19:36.208Z,15.05
2023-02-07T04:24:35.329Z,13.20
2023-02-07T04:29:32.372Z,13.70
2023-02-07T04:34:29.979Z,16.88
2023-02-07T04:39:27.003Z,13.93
2023-02-07T04:44:23.904Z,14.77
2023-02-07T04:49:20.968Z,19.02
2023-02-07T04:54:18.625Z,21.02
2023-02-07T04:59:15.588Z,16.92
2023-02-07T05:04:12.498Z,17.13
2023-02-07T05:09:09.368Z,18.77
2023-02-07T05:14:07.033Z,16.55
2023-02-07T05:19:04.822Z,15.88
2023-02-07T05:24:01.740Z,10.15
2023-02-07T05:28:58.699Z,14.38
2023-02-07T05:33:56.378Z,15.93
2023-02-07T05:38:53.545Z,12.25
2023-02-07T05:43:50.527Z,11.27
2023-02-07T05:48:47.804Z,9.73
2023-02-07T05:53:45.459Z,10.02
2023-02-07T05:58:42.923Z,7.78
2023-02-07T06:03:39.814Z,8.45
2023-02-07T06:08:38.140Z,6.63
2023-02-07T06:13:35.848Z,6.85
2023-02-07T06:18:34.478Z,8.60
2023-02-07T06:23:31.363Z,11.52
2023-02-07T06:28:28.655Z,11.65
2023-02-07T06:33:26.333Z,14.15
2023-02-07T06:38:23.261Z,14.68
2023-02-07T06:43:20.237Z,17.73
2023-02-07T06:48:17.226Z,21.00
2023-02-07T06:53:14.727Z,19.40
2023-02-07T06:58:11.700Z,20.80
2023-02-07T07:03:12.915Z,19.92
2023-02-07T07:08:14.871Z,19.98
2023-02-07T07:13:12.814Z,19.02
2023-02-07T07:18:09.825Z,19.52
2023-02-07T07:23:06.892Z,19.63
2023-02-07T07:28:04.228Z,15.73
2023-02-07T07:33:01.866Z,17.45
2023-02-07T07:38:03.575Z,18.98
2023-02-07T07:43:06.920Z,15.32
2023-02-07T07:48:18.556Z,13.47
2023-02-07T07:53:16.836Z,11.75
2023-02-07T07:58:13.676Z,9.65
2023-02-07T08:03:12.182Z,10.73
2023-02-07T08:08:10.110Z,10.60
2023-02-07T08:13:07.310Z,9.02
2023-02-07T08:18:04.537Z,6.80
2023-02-07T08:23:04.223Z,8.13
2023-02-07T08:28:04.418Z,8.27
2023-02-07T08:33:01.850Z,6.35
2023-02-07T08:37:58.692Z,7.40
2023-02-07T08:42:55.719Z,6.47
2023-02-07T08:47:55.061Z,6.45
2023-02-07T08:52:54.352Z,6.68
2023-02-07T08:57:54.410Z,6.05
2023-02-07T09:02:51.800Z,10.30
2023-02-07T09:07:49.751Z,6.28
2023-02-07T09:12:47.723Z,9.23
2023-02-07T09:17:47.178Z,6.50
2023-02-07T09:23:03.100Z,7.07
2023-02-07T09:28:01.635Z,7.55
2023-02-07T09:32:59.528Z,7.03
2023-02-07T09:37:58.456Z,6.57
2023-02-07T09:43:01.303Z,7.57
2023-02-07T09:48:04.220Z,6.47
2023-02-07T09:53:06.743Z,7.90
2023-02-07T09:58:09.681Z,7.15
2023-02-07T10:03:15.123Z,6.75
2023-02-07T10:08:15.299Z,7.25
2023-02-07T10:13:38.009Z,6.82
2023-02-07T10:18:45.151Z,5.90
2023-02-07T10:23:57.137Z,5.55
2023-02-07T10:29:13.474Z,6.63
2023-02-07T10:34:18.632Z,7.35
2023-02-07T10:39:21.771Z,8.20
2023-02-07T10:44:20.221Z,8.68
2023-02-07T10:49:25.356Z,8.43
2023-02-07T10:54:23.927Z,8.15
2023-02-07T10:59:34.918Z,8.07
2023-02-07T11:04:38.236Z,7.85
2023-02-07T11:09:37.148Z,7.43
2023-02-07T11:14:36.313Z,6.75
2023-02-07T11:19:33.438Z,6.75
2023-02-07T11:24:35.707Z,6.60
2023-02-07T11:29:39.977Z,7.72
2023-02-07T11:34:45.691Z,7.25
2023-02-07T11:39:44.095Z,6.10
2023-02-07T11:44:42.349Z,6.22
2023-02-07T11:49:43.357Z,6.65
2023-02-07T11:54:41.674Z,6.85
2023-02-07T11:59:46.884Z,6.10
2023-02-07T12:04:52.684Z,6.32
2023-02-07T12:14:54.600Z,6.53
2023-02-07T12:19:56.007Z,6.45
2023-02-07T12:24:57.975Z,5.35
2023-02-07T12:30:02.126Z,5.63
2023-02-07T12:35:05.497Z,5.38
2023-02-07T12:40:10.144Z,6.20
2023-02-07T12:45:14.423Z,5.45
2023-02-07T12:50:41.937Z,5.15
2023-02-07T12:55:49.821Z,5.15
2023-02-07T13:00:57.345Z,5.40
2023-02-07T13:06:06.548Z,5.72
2023-02-07T13:11:15.552Z,4.80
2023-02-07T13:16:18.349Z,3.70
2023-02-07T13:21:23.961Z,4.40
2023-02-07T13:26:24.419Z,3.63
2023-02-07T13:31:30.262Z,4.28
2023-02-07T13:36:43.799Z,3.60
2023-02-07T13:41:52.892Z,4.60
2023-02-07T13:47:12.729Z,4.45
2023-02-07T13:52:24.039Z,3.40
2023-02-07T13:57:55.564Z,3.60
2023-02-07T14:02:55.278Z,4.20
2023-02-07T14:08:00.212Z,4.53
2023-02-07T14:12:59.848Z,4.28
2023-02-07T14:18:00.884Z,4.22
2023-02-07T14:23:14.312Z,4.55
2023-02-07T14:28:32.856Z,4.95
2023-02-07T14:33:34.231Z,3.90
2023-02-07T14:38:36.469Z,4.22
2023-02-07T14:43:41.833Z,5.13
2023-02-07T14:48:51.717Z,5.57
2023-02-07T14:54:05.460Z,6.28
2023-02-07T14:59:02.875Z,5.93
2023-02-07T15:04:08.677Z,5.35
2023-02-07T15:09:06.095Z,6.85
2023-02-07T15:14:06.660Z,5.18
2023-02-07T15:19:12.611Z,5.88
2023-02-07T15:24:18.172Z,6.20
2023-02-07T15:29:21.140Z,5.70
2023-02-07T15:34:23.451Z,6.30
2023-02-07T15:39:23.053Z,6.07
2023-02-07T15:44:22.202Z,5.47
2023-02-07T15:49:28.867Z,5.78
2023-02-07T15:54:27.287Z,6.55
2023-02-07T15:59:27.828Z,7.10
2023-02-07T16:04:35.074Z,5.53
2023-02-07T16:09:38.568Z,6.55
2023-02-07T16:14:40.723Z,6.25
2023-02-07T16:19:45.878Z,6.80
2023-02-07T16:24:46.430Z,6.70
2023-02-07T16:29:44.560Z,7.70
2023-02-07T16:34:58.639Z,8.13
2023-02-07T16:39:56.511Z,7.95
2023-02-07T16:44:54.856Z,7.85
2023-02-07T16:49:55.690Z,8.35
2023-02-07T16:54:53.955Z,8.90
2023-02-07T16:59:53.518Z,10.02
2023-02-07T17:05:06.543Z,9.23
2023-02-07T17:10:18.048Z,10.45
2023-02-07T17:15:15.404Z,9.68
2023-02-07T17:20:22.444Z,10.13
2023-02-07T17:25:21.904Z,11.05
2023-02-07T17:30:24.089Z,11.30
2023-02-07T17:35:23.240Z,13.32
2023-02-07T17:40:28.105Z,13.73
2023-02-07T17:45:28.424Z,12.57
2023-02-07T17:50:29.450Z,12.65
2023-02-07T17:55:39.341Z,15.43
2023-02-07T18:00:38.916Z,10.98
2023-02-07T18:05:36.714Z,12.70
2023-02-07T18:10:35.240Z,11.13
2023-02-07T18:15:32.570Z,11.57
2023-02-07T18:20:31.530Z,10.23
2023-02-07T18:25:30.043Z,11.48
2023-02-07T18:30:28.573Z,10.85
2023-02-07T18:35:25.458Z,11.98
2023-02-07T18:40:22.342Z,10.30
2023-02-07T18:45:19.437Z,10.15
2023-02-07T18:50:19.062Z,11.88
2023-02-07T18:55:16.082Z,11.73
2023-02-07T19:00:14.069Z,10.95
2023-02-07T19:05:10.882Z,12.20
2023-02-07T19:10:14.867Z,9.30
2023-02-07T19:15:11.914Z,10.35
2023-02-07T19:20:13.356Z,10.15
2023-02-07T19:25:12.633Z,12.43
2023-02-07T19:30:12.530Z,12.85
2023-02-07T19:35:09.344Z,12.23
2023-02-07T19:40:07.008Z,14.88
2023-02-07T19:45:06.406Z,12.65
2023-02-07T19:50:03.704Z,13.48
2023-02-07T19:55:00.683Z,13.40
2023-02-07T19:59:57.689Z,13.57
2023-02-07T20:04:55.307Z,13.13
2023-02-07T20:09:52.262Z,12.63
2023-02-07T20:14:49.360Z,15.07
2023-02-07T20:19:46.595Z,14.88
2023-02-07T20:24:44.487Z,14.93
2023-02-07T20:29:41.332Z,14.48
2023-02-07T20:34:40.214Z,14.38
2023-02-07T20:39:37.768Z,17.13
2023-02-07T20:44:35.313Z,17.77
2023-02-07T20:49:32.256Z,19.88
2023-02-07T20:54:30.379Z,21.25
2023-02-07T20:59:28.805Z,17.45
2023-02-07T21:04:26.997Z,21.15
2023-02-07T21:09:23.882Z,18.85
2023-02-07T21:14:24.971Z,20.88
2023-02-07T21:19:24.683Z,19.33
2023-02-07T21:24:22.254Z,23.08
2023-02-07T21:29:20.385Z,23.25
2023-02-07T21:34:20.428Z,21.48
2023-02-07T21:39:17.998Z,21.58
2023-02-07T21:44:15.961Z,21.42
2023-02-07T21:49:15.579Z,21.45
2023-02-07T21:54:12.786Z,21.80
2023-02-07T21:59:12.709Z,21.15
2023-02-07T22:04:10.802Z,21.42
2023-02-07T22:09:12.486Z,21.63
2023-02-07T22:14:10.724Z,24.02
2023-02-07T22:19:12.667Z,21.55
2023-02-07T22:24:11.650Z,19.42
2023-02-07T22:29:09.723Z,22.17
2023-02-07T22:34:08.372Z,20.98
2023-02-07T22:39:07.527Z,20.40
2023-02-07T22:44:05.834Z,19.50
2023-02-07T22:49:02.953Z,24.00
2023-02-07T22:54:04.982Z,21.23
2023-02-07T22:59:01.918Z,22.98
2023-02-07T23:04:01.086Z,22.33
2023-02-07T23:08:58.244Z,22.00
2023-02-07T23:13:55.166Z,19.70
2023-02-07T23:18:55.563Z,20.80
2023-02-07T23:23:54.224Z,18.85
2023-02-07T23:28:51.525Z,17.73
2023-02-07T23:33:48.425Z,20.13
2023-02-07T23:38:45.857Z,21.40
2023-02-07T23:43:43.449Z,20.48
2023-02-07T23:48:40.308Z,19.40
2023-02-07T23:53:37.147Z,21.25
2023-02-07T23:58:34.510Z,20.55
